Buford, Texas
Current Conditions -  °F | °C
As of 7:35 PM on Friday 21 Nov 2014 (Local Time) from KSNK Reporting Station
Clear Clear  
Wind Chill: 58°   Ceiling: Unl
Heat Index: 58°   Visibility: 10mi
Dew Point: 47°   Wind: 6mph
Humidity: 67%   Direction: 100°E
Pressure: 29.99"   Gusts: NA
Location:  32.4169°N, 100.857°W
Report Text: KSNK 220135Z AUTO 10005KT 10SM CLR 15/09 A2999 RMK AO2 T01460086
Loading
Personal Weather Stations






























Interactive Weather Map New forecast layout! Learn more

10-Day Weather Forecast

Advertisements
Track Severe Weather on mobile